Advance, North Carolina
Current Conditions -  °F | °C
As of 11:15 AM on Saturday 20 Dec 2014 (Local Time) from KEXX Reporting Station
Overcast Overcast  
Wind Chill:   Ceiling: 6000
Heat Index:   Visibility: 10mi
Dew Point: -1°   Wind: 3mph
Humidity: 73%   Direction: 30°NNE
Pressure: 30.26"   Gusts: NA
Location:  35.95°N, 80.41°W
Report Text: KEXX 201615Z AUTO 03003KT 10SM OVC060 04/M01 A3026 RMK AO2 T00371008
Loading
Personal Weather Stations






























Interactive Weather Map New forecast layout! Learn more

10-Day Weather Forecast

Advertisements
Track Severe Weather on mobile